Sao Rafael, Brazil
Current Conditions -  °F | °C
As of 5:00 PM on Saturday 25 Oct 2014 (Local Time) from SBNT Reporting Station
Scattered Clouds Scattered Clouds  
Wind Chill: 81°   Ceiling: Unl
Heat Index: 83°   Visibility: 6mi
Dew Point: 68°   Wind: 17mph
Humidity: 65%   Direction: 130°SE
Pressure: 29.91"   Gusts: NA
Location:  5.8°S, 36.92°W
Report Text: SBNT 252000Z 13015KT 9999 SCT025 27/20 Q1013
Loading
Personal Weather Stations






























Interactive Weather Map
Tropical Storm Tracking
New forecast layout! Learn more

10-Day Weather Forecast

Advertisements
Track Severe Weather on mobile